sensor_id;sensor_type;location;lat;lon;timestamp;P1;durP1;ratioP1;P2;durP2;ratioP2
65853;SDS011;52627;48.838;2.402;2023-02-11T00:01:29;37.90;;;23.40;;
65853;SDS011;52627;48.838;2.402;2023-02-11T00:03:58;32.70;;;21.60;;
65853;SDS011;52627;48.838;2.402;2023-02-11T00:06:28;37.60;;;22.10;;
65853;SDS011;52627;48.838;2.402;2023-02-11T00:08:57;37.40;;;22.60;;
65853;SDS011;52627;48.838;2.402;2023-02-11T00:11:25;34.90;;;23.80;;
65853;SDS011;52627;48.838;2.402;2023-02-11T00:13:59;36.60;;;23.00;;
65853;SDS011;52627;48.838;2.402;2023-02-11T00:16:29;38.00;;;23.00;;
65853;SDS011;52627;48.838;2.402;2023-02-11T00:18:59;38.30;;;22.30;;
65853;SDS011;52627;48.838;2.402;2023-02-11T00:21:28;36.40;;;22.00;;
65853;SDS011;52627;48.838;2.402;2023-02-11T00:23:56;34.50;;;21.20;;
65853;SDS011;52627;48.838;2.402;2023-02-11T00:26:28;35.20;;;22.10;;
65853;SDS011;52627;48.838;2.402;2023-02-11T00:28:58;34.50;;;21.70;;
65853;SDS011;52627;48.838;2.402;2023-02-11T00:31:27;37.90;;;22.70;;
65853;SDS011;52627;48.838;2.402;2023-02-11T00:33:55;38.90;;;22.70;;
65853;SDS011;52627;48.838;2.402;2023-02-11T00:36:25;39.00;;;22.90;;
65853;SDS011;52627;48.838;2.402;2023-02-11T00:38:54;36.20;;;21.70;;
65853;SDS011;52627;48.838;2.402;2023-02-11T00:41:22;35.60;;;21.20;;
65853;SDS011;52627;48.838;2.402;2023-02-11T00:43:51;33.10;;;20.80;;
65853;SDS011;52627;48.838;2.402;2023-02-11T00:46:19;38.20;;;22.60;;
65853;SDS011;52627;48.838;2.402;2023-02-11T00:48:48;39.70;;;22.10;;
65853;SDS011;52627;48.838;2.402;2023-02-11T00:51:17;41.60;;;24.60;;
65853;SDS011;52627;48.838;2.402;2023-02-11T00:53:45;40.80;;;24.80;;
65853;SDS011;52627;48.838;2.402;2023-02-11T00:56:12;40.90;;;23.50;;
65853;SDS011;52627;48.838;2.402;2023-02-11T00:58:40;38.20;;;22.80;;
65853;SDS011;52627;48.838;2.402;2023-02-11T01:01:07;33.20;;;22.00;;
65853;SDS011;52627;48.838;2.402;2023-02-11T01:03:35;36.50;;;22.10;;
65853;SDS011;52627;48.838;2.402;2023-02-11T01:06:03;35.90;;;21.90;;
65853;SDS011;52627;48.838;2.402;2023-02-11T01:08:31;40.90;;;24.50;;
65853;SDS011;52627;48.838;2.402;2023-02-11T01:11:02;34.30;;;20.90;;
65853;SDS011;52627;48.838;2.402;2023-02-11T01:13:33;36.00;;;21.80;;
65853;SDS011;52627;48.838;2.402;2023-02-11T01:16:06;33.90;;;23.00;;
65853;SDS011;52627;48.838;2.402;2023-02-11T01:18:34;35.50;;;21.70;;
65853;SDS011;52627;48.838;2.402;2023-02-11T01:21:02;40.10;;;22.90;;
65853;SDS011;52627;48.838;2.402;2023-02-11T01:23:30;38.10;;;22.50;;
65853;SDS011;52627;48.838;2.402;2023-02-11T01:25:58;40.60;;;22.20;;
65853;SDS011;52627;48.838;2.402;2023-02-11T01:28:27;33.90;;;22.30;;
65853;SDS011;52627;48.838;2.402;2023-02-11T01:30:55;33.80;;;21.30;;
65853;SDS011;52627;48.838;2.402;2023-02-11T01:33:23;43.20;;;23.00;;
65853;SDS011;52627;48.838;2.402;2023-02-11T01:35:51;40.00;;;21.20;;
65853;SDS011;52627;48.838;2.402;2023-02-11T01:38:22;35.60;;;23.30;;
65853;SDS011;52627;48.838;2.402;2023-02-11T01:40:53;39.10;;;23.90;;
65853;SDS011;52627;48.838;2.402;2023-02-11T01:43:26;37.60;;;21.90;;
65853;SDS011;52627;48.838;2.402;2023-02-11T01:46:00;39.90;;;24.00;;
65853;SDS011;52627;48.838;2.402;2023-02-11T01:48:52;41.60;;;24.00;;
65853;SDS011;52627;48.838;2.402;2023-02-11T01:51:33;42.80;;;23.50;;
65853;SDS011;52627;48.838;2.402;2023-02-11T01:54:08;41.40;;;23.20;;
65853;SDS011;52627;48.838;2.402;2023-02-11T01:56:58;38.40;;;23.20;;
65853;SDS011;52627;48.838;2.402;2023-02-11T02:02:59;37.50;;;22.80;;
65853;SDS011;52627;48.838;2.402;2023-02-11T02:08:24;41.70;;;23.90;;
65853;SDS011;52627;48.838;2.402;2023-02-11T02:10:57;41.60;;;23.20;;
65853;SDS011;52627;48.838;2.402;2023-02-11T02:13:29;44.10;;;23.60;;
65853;SDS011;52627;48.838;2.402;2023-02-11T02:16:02;39.70;;;23.60;;
65853;SDS011;52627;48.838;2.402;2023-02-11T02:24:49;39.20;;;22.30;;
65853;SDS011;52627;48.838;2.402;2023-02-11T02:33:26;35.80;;;21.60;;
65853;SDS011;52627;48.838;2.402;2023-02-11T02:36:14;38.40;;;22.90;;
65853;SDS011;52627;48.838;2.402;2023-02-11T02:39:00;39.30;;;23.40;;
65853;SDS011;52627;48.838;2.402;2023-02-11T02:41:35;41.30;;;22.80;;
65853;SDS011;52627;48.838;2.402;2023-02-11T02:44:04;42.70;;;23.60;;
65853;SDS011;52627;48.838;2.402;2023-02-11T02:46:34;40.50;;;23.60;;
65853;SDS011;52627;48.838;2.402;2023-02-11T02:49:05;36.20;;;24.00;;
65853;SDS011;52627;48.838;2.402;2023-02-11T03:01:19;35.40;;;22.30;;
65853;SDS011;52627;48.838;2.402;2023-02-11T03:04:07;37.80;;;23.40;;
65853;SDS011;52627;48.838;2.402;2023-02-11T03:10:30;40.70;;;22.80;;
65853;SDS011;52627;48.838;2.402;2023-02-11T03:13:04;37.70;;;22.30;;
65853;SDS011;52627;48.838;2.402;2023-02-11T03:15:37;39.80;;;24.20;;
65853;SDS011;52627;48.838;2.402;2023-02-11T03:18:09;39.20;;;23.40;;
65853;SDS011;52627;48.838;2.402;2023-02-11T03:20:41;40.10;;;22.60;;
65853;SDS011;52627;48.838;2.402;2023-02-11T03:23:18;41.00;;;23.00;;
65853;SDS011;52627;48.838;2.402;2023-02-11T03:25:55;40.10;;;24.40;;
65853;SDS011;52627;48.838;2.402;2023-02-11T03:31:35;34.00;;;23.10;;
65853;SDS011;52627;48.838;2.402;2023-02-11T03:36:47;42.50;;;24.10;;
65853;SDS011;52627;48.838;2.402;2023-02-11T03:39:20;37.20;;;24.40;;
65853;SDS011;52627;48.838;2.402;2023-02-11T03:41:51;40.40;;;22.80;;
65853;SDS011;52627;48.838;2.402;2023-02-11T03:44:24;39.30;;;23.40;;
65853;SDS011;52627;48.838;2.402;2023-02-11T03:46:54;36.10;;;22.90;;
65853;SDS011;52627;48.838;2.402;2023-02-11T03:49:23;36.80;;;22.60;;
65853;SDS011;52627;48.838;2.402;2023-02-11T03:51:54;40.40;;;24.20;;
65853;SDS011;52627;48.838;2.402;2023-02-11T03:54:28;38.40;;;23.80;;
65853;SDS011;52627;48.838;2.402;2023-02-11T03:56:58;39.40;;;23.80;;
65853;SDS011;52627;48.838;2.402;2023-02-11T03:59:27;41.50;;;23.10;;
65853;SDS011;52627;48.838;2.402;2023-02-11T04:01:55;38.20;;;22.90;;
65853;SDS011;52627;48.838;2.402;2023-02-11T04:04:23;38.80;;;23.00;;
65853;SDS011;52627;48.838;2.402;2023-02-11T04:06:51;37.00;;;23.10;;
65853;SDS011;52627;48.838;2.402;2023-02-11T04:09:18;40.80;;;23.50;;
65853;SDS011;52627;48.838;2.402;2023-02-11T04:11:46;38.60;;;22.90;;
65853;SDS011;52627;48.838;2.402;2023-02-11T04:14:13;37.20;;;22.60;;
65853;SDS011;52627;48.838;2.402;2023-02-11T04:16:41;37.50;;;21.40;;
65853;SDS011;52627;48.838;2.402;2023-02-11T04:19:08;42.70;;;23.30;;
65853;SDS011;52627;48.838;2.402;2023-02-11T04:21:36;38.70;;;22.60;;
65853;SDS011;52627;48.838;2.402;2023-02-11T04:24:03;38.30;;;23.00;;
65853;SDS011;52627;48.838;2.402;2023-02-11T04:26:31;42.80;;;23.10;;
65853;SDS011;52627;48.838;2.402;2023-02-11T04:28:59;38.40;;;23.40;;
65853;SDS011;52627;48.838;2.402;2023-02-11T04:31:26;40.60;;;22.30;;
65853;SDS011;52627;48.838;2.402;2023-02-11T04:33:55;37.40;;;21.20;;
65853;SDS011;52627;48.838;2.402;2023-02-11T04:36:23;38.40;;;22.70;;
65853;SDS011;52627;48.838;2.402;2023-02-11T04:38:50;41.70;;;22.40;;
65853;SDS011;52627;48.838;2.402;2023-02-11T04:41:17;34.40;;;22.00;;
65853;SDS011;52627;48.838;2.402;2023-02-11T04:43:45;36.90;;;22.60;;
65853;SDS011;52627;48.838;2.402;2023-02-11T04:46:12;41.00;;;23.10;;
65853;SDS011;52627;48.838;2.402;2023-02-11T04:48:40;38.00;;;23.00;;
65853;SDS011;52627;48.838;2.402;2023-02-11T04:51:07;36.60;;;23.40;;
65853;SDS011;52627;48.838;2.402;2023-02-11T04:53:35;36.90;;;22.90;;
65853;SDS011;52627;48.838;2.402;2023-02-11T04:56:03;41.50;;;23.00;;
65853;SDS011;52627;48.838;2.402;2023-02-11T04:58:30;39.00;;;24.10;;
65853;SDS011;52627;48.838;2.402;2023-02-11T05:01:08;38.70;;;23.70;;
65853;SDS011;52627;48.838;2.402;2023-02-11T05:03:38;41.00;;;24.60;;
65853;SDS011;52627;48.838;2.402;2023-02-11T05:06:06;38.90;;;23.90;;
65853;SDS011;52627;48.838;2.402;2023-02-11T05:08:35;39.40;;;24.90;;
65853;SDS011;52627;48.838;2.402;2023-02-11T05:11:02;38.30;;;25.60;;
65853;SDS011;52627;48.838;2.402;2023-02-11T05:13:31;41.40;;;25.60;;
65853;SDS011;52627;48.838;2.402;2023-02-11T05:15:58;37.30;;;23.60;;
65853;SDS011;52627;48.838;2.402;2023-02-11T05:18:25;36.30;;;22.70;;
65853;SDS011;52627;48.838;2.402;2023-02-11T05:20:53;38.70;;;22.60;;
65853;SDS011;52627;48.838;2.402;2023-02-11T05:23:20;36.30;;;22.90;;
65853;SDS011;52627;48.838;2.402;2023-02-11T05:25:48;37.10;;;23.40;;
65853;SDS011;52627;48.838;2.402;2023-02-11T05:28:17;37.50;;;22.50;;
65853;SDS011;52627;48.838;2.402;2023-02-11T05:30:44;39.50;;;23.80;;
65853;SDS011;52627;48.838;2.402;2023-02-11T05:33:12;45.60;;;24.60;;
65853;SDS011;52627;48.838;2.402;2023-02-11T05:35:39;38.80;;;23.50;;
65853;SDS011;52627;48.838;2.402;2023-02-11T05:38:07;40.10;;;23.60;;
65853;SDS011;52627;48.838;2.402;2023-02-11T05:40:34;37.90;;;23.60;;
65853;SDS011;52627;48.838;2.402;2023-02-11T05:43:02;37.60;;;23.80;;
65853;SDS011;52627;48.838;2.402;2023-02-11T05:45:29;39.20;;;23.10;;
65853;SDS011;52627;48.838;2.402;2023-02-11T05:47:56;39.70;;;23.50;;
65853;SDS011;52627;48.838;2.402;2023-02-11T05:50:24;34.60;;;22.10;;
65853;SDS011;52627;48.838;2.402;2023-02-11T05:52:52;38.70;;;23.90;;
65853;SDS011;52627;48.838;2.402;2023-02-11T05:55:19;41.60;;;24.20;;
65853;SDS011;52627;48.838;2.402;2023-02-11T05:57:47;41.80;;;24.40;;
65853;SDS011;52627;48.838;2.402;2023-02-11T06:00:15;37.70;;;23.10;;
65853;SDS011;52627;48.838;2.402;2023-02-11T06:02:42;38.20;;;23.50;;
65853;SDS011;52627;48.838;2.402;2023-02-11T06:05:10;38.50;;;23.60;;
65853;SDS011;52627;48.838;2.402;2023-02-11T06:07:37;41.00;;;23.40;;
65853;SDS011;52627;48.838;2.402;2023-02-11T06:10:05;41.60;;;23.60;;
65853;SDS011;52627;48.838;2.402;2023-02-11T06:12:35;40.50;;;23.10;;
65853;SDS011;52627;48.838;2.402;2023-02-11T06:15:05;41.00;;;23.20;;
65853;SDS011;52627;48.838;2.402;2023-02-11T06:17:32;35.10;;;22.60;;
65853;SDS011;52627;48.838;2.402;2023-02-11T06:20:00;39.40;;;23.20;;
65853;SDS011;52627;48.838;2.402;2023-02-11T06:22:29;38.90;;;23.50;;
65853;SDS011;52627;48.838;2.402;2023-02-11T06:24:56;40.50;;;25.30;;
65853;SDS011;52627;48.838;2.402;2023-02-11T06:27:28;41.70;;;23.70;;
65853;SDS011;52627;48.838;2.402;2023-02-11T06:29:56;38.70;;;22.80;;
65853;SDS011;52627;48.838;2.402;2023-02-11T06:32:23;39.90;;;23.50;;
65853;SDS011;52627;48.838;2.402;2023-02-11T06:35:13;35.20;;;23.60;;
65853;SDS011;52627;48.838;2.402;2023-02-11T06:37:41;39.30;;;23.90;;
65853;SDS011;52627;48.838;2.402;2023-02-11T06:40:10;37.50;;;24.40;;
65853;SDS011;52627;48.838;2.402;2023-02-11T06:42:38;36.60;;;23.80;;
65853;SDS011;52627;48.838;2.402;2023-02-11T06:45:07;39.20;;;23.00;;
65853;SDS011;52627;48.838;2.402;2023-02-11T06:47:36;42.10;;;24.30;;
65853;SDS011;52627;48.838;2.402;2023-02-11T06:50:04;41.10;;;22.50;;
65853;SDS011;52627;48.838;2.402;2023-02-11T06:52:34;39.70;;;23.20;;
65853;SDS011;52627;48.838;2.402;2023-02-11T06:55:01;39.60;;;23.40;;
65853;SDS011;52627;48.838;2.402;2023-02-11T06:57:29;40.40;;;23.50;;
65853;SDS011;52627;48.838;2.402;2023-02-11T06:59:57;43.80;;;25.10;;
65853;SDS011;52627;48.838;2.402;2023-02-11T07:02:24;42.00;;;24.20;;
65853;SDS011;52627;48.838;2.402;2023-02-11T07:04:52;41.20;;;24.60;;
65853;SDS011;52627;48.838;2.402;2023-02-11T07:07:19;41.50;;;24.60;;
65853;SDS011;52627;48.838;2.402;2023-02-11T07:09:46;41.00;;;23.20;;
65853;SDS011;52627;48.838;2.402;2023-02-11T07:12:14;43.50;;;24.40;;
65853;SDS011;52627;48.838;2.402;2023-02-11T07:14:41;40.70;;;23.60;;
65853;SDS011;52627;48.838;2.402;2023-02-11T07:17:09;39.40;;;24.20;;
65853;SDS011;52627;48.838;2.402;2023-02-11T07:19:36;40.70;;;23.50;;
65853;SDS011;52627;48.838;2.402;2023-02-11T07:22:04;41.20;;;24.00;;
65853;SDS011;52627;48.838;2.402;2023-02-11T07:24:31;43.40;;;25.10;;
65853;SDS011;52627;48.838;2.402;2023-02-11T07:26:59;39.10;;;24.30;;
65853;SDS011;52627;48.838;2.402;2023-02-11T07:29:26;43.40;;;24.70;;
65853;SDS011;52627;48.838;2.402;2023-02-11T07:31:54;39.90;;;23.90;;
65853;SDS011;52627;48.838;2.402;2023-02-11T07:34:21;43.30;;;25.20;;
65853;SDS011;52627;48.838;2.402;2023-02-11T07:36:49;43.00;;;25.70;;
65853;SDS011;52627;48.838;2.402;2023-02-11T07:39:16;43.30;;;25.00;;
65853;SDS011;52627;48.838;2.402;2023-02-11T07:41:44;45.40;;;26.70;;
65853;SDS011;52627;48.838;2.402;2023-02-11T07:44:14;39.10;;;24.20;;
65853;SDS011;52627;48.838;2.402;2023-02-11T07:46:41;45.90;;;27.00;;
65853;SDS011;52627;48.838;2.402;2023-02-11T07:49:11;40.40;;;25.20;;
65853;SDS011;52627;48.838;2.402;2023-02-11T07:51:38;40.70;;;25.10;;
65853;SDS011;52627;48.838;2.402;2023-02-11T07:54:06;41.50;;;24.60;;
65853;SDS011;52627;48.838;2.402;2023-02-11T07:56:33;45.90;;;25.40;;
65853;SDS011;52627;48.838;2.402;2023-02-11T07:59:02;40.60;;;25.90;;
65853;SDS011;52627;48.838;2.402;2023-02-11T08:01:30;44.80;;;27.00;;
65853;SDS011;52627;48.838;2.402;2023-02-11T08:03:59;44.60;;;25.70;;
65853;SDS011;52627;48.838;2.402;2023-02-11T08:06:30;42.00;;;25.20;;
65853;SDS011;52627;48.838;2.402;2023-02-11T08:11:34;43.80;;;25.60;;
65853;SDS011;52627;48.838;2.402;2023-02-11T08:14:01;42.10;;;24.90;;
65853;SDS011;52627;48.838;2.402;2023-02-11T08:16:35;38.10;;;23.30;;
65853;SDS011;52627;48.838;2.402;2023-02-11T08:19:07;46.10;;;26.20;;
65853;SDS011;52627;48.838;2.402;2023-02-11T08:21:38;43.50;;;26.60;;
65853;SDS011;52627;48.838;2.402;2023-02-11T08:24:06;44.60;;;27.60;;
65853;SDS011;52627;48.838;2.402;2023-02-11T08:26:34;38.70;;;26.00;;
65853;SDS011;52627;48.838;2.402;2023-02-11T08:29:07;44.00;;;26.60;;
65853;SDS011;52627;48.838;2.402;2023-02-11T08:31:39;44.10;;;25.70;;
65853;SDS011;52627;48.838;2.402;2023-02-11T08:34:08;42.70;;;26.60;;
65853;SDS011;52627;48.838;2.402;2023-02-11T08:36:38;42.10;;;25.60;;
65853;SDS011;52627;48.838;2.402;2023-02-11T08:39:12;42.10;;;24.90;;
65853;SDS011;52627;48.838;2.402;2023-02-11T08:41:51;43.60;;;26.60;;
65853;SDS011;52627;48.838;2.402;2023-02-11T08:44:20;45.00;;;27.00;;
65853;SDS011;52627;48.838;2.402;2023-02-11T08:46:49;44.70;;;27.50;;
65853;SDS011;52627;48.838;2.402;2023-02-11T08:49:17;46.60;;;27.50;;
65853;SDS011;52627;48.838;2.402;2023-02-11T08:51:45;47.30;;;26.20;;
65853;SDS011;52627;48.838;2.402;2023-02-11T08:54:13;47.70;;;27.50;;
65853;SDS011;52627;48.838;2.402;2023-02-11T08:56:42;41.80;;;26.90;;
65853;SDS011;52627;48.838;2.402;2023-02-11T08:59:12;46.10;;;27.70;;
65853;SDS011;52627;48.838;2.402;2023-02-11T09:01:41;46.70;;;27.10;;
65853;SDS011;52627;48.838;2.402;2023-02-11T09:04:10;41.10;;;26.50;;
65853;SDS011;52627;48.838;2.402;2023-02-11T09:06:38;47.50;;;27.90;;
65853;SDS011;52627;48.838;2.402;2023-02-11T09:09:05;45.70;;;28.50;;
65853;SDS011;52627;48.838;2.402;2023-02-11T09:11:36;42.90;;;27.00;;
65853;SDS011;52627;48.838;2.402;2023-02-11T09:14:04;41.30;;;27.80;;
65853;SDS011;52627;48.838;2.402;2023-02-11T09:16:34;47.20;;;28.30;;
65853;SDS011;52627;48.838;2.402;2023-02-11T09:19:03;45.20;;;28.80;;
65853;SDS011;52627;48.838;2.402;2023-02-11T09:21:31;41.40;;;27.70;;
65853;SDS011;52627;48.838;2.402;2023-02-11T09:23:59;46.20;;;28.20;;
65853;SDS011;52627;48.838;2.402;2023-02-11T09:26:29;47.70;;;28.80;;
65853;SDS011;52627;48.838;2.402;2023-02-11T09:28:59;41.30;;;28.30;;
65853;SDS011;52627;48.838;2.402;2023-02-11T09:31:28;43.80;;;29.00;;
65853;SDS011;52627;48.838;2.402;2023-02-11T09:33:59;43.30;;;27.70;;
65853;SDS011;52627;48.838;2.402;2023-02-11T09:39:00;44.30;;;28.80;;
65853;SDS011;52627;48.838;2.402;2023-02-11T09:44:35;41.30;;;27.90;;
65853;SDS011;52627;48.838;2.402;2023-02-11T09:47:06;40.60;;;28.10;;
65853;SDS011;52627;48.838;2.402;2023-02-11T09:49:50;40.60;;;27.70;;
65853;SDS011;52627;48.838;2.402;2023-02-11T09:52:32;42.10;;;29.70;;
65853;SDS011;52627;48.838;2.402;2023-02-11T09:55:14;39.10;;;28.40;;
65853;SDS011;52627;48.838;2.402;2023-02-11T09:57:45;42.40;;;29.00;;
65853;SDS011;52627;48.838;2.402;2023-02-11T10:08:56;41.50;;;29.10;;
65853;SDS011;52627;48.838;2.402;2023-02-11T10:11:51;38.70;;;28.70;;
65853;SDS011;52627;48.838;2.402;2023-02-11T10:18:00;37.60;;;27.30;;
65853;SDS011;52627;48.838;2.402;2023-02-11T10:23:33;38.20;;;28.90;;
65853;SDS011;52627;48.838;2.402;2023-02-11T10:26:15;35.10;;;27.50;;
65853;SDS011;52627;48.838;2.402;2023-02-11T10:28:50;35.70;;;27.90;;
65853;SDS011;52627;48.838;2.402;2023-02-11T10:31:25;39.00;;;28.50;;
65853;SDS011;52627;48.838;2.402;2023-02-11T10:34:08;36.10;;;28.10;;
65853;SDS011;52627;48.838;2.402;2023-02-11T10:36:39;43.50;;;31.20;;
65853;SDS011;52627;48.838;2.402;2023-02-11T10:39:21;38.90;;;30.40;;
65853;SDS011;52627;48.838;2.402;2023-02-11T10:41:56;35.40;;;27.80;;
65853;SDS011;52627;48.838;2.402;2023-02-11T10:44:30;40.80;;;29.80;;
65853;SDS011;52627;48.838;2.402;2023-02-11T10:47:04;39.30;;;28.30;;
65853;SDS011;52627;48.838;2.402;2023-02-11T10:49:39;38.20;;;29.10;;
65853;SDS011;52627;48.838;2.402;2023-02-11T10:55:02;39.00;;;29.40;;
65853;SDS011;52627;48.838;2.402;2023-02-11T10:57:39;39.40;;;30.10;;
65853;SDS011;52627;48.838;2.402;2023-02-11T11:02:45;39.00;;;28.80;;
65853;SDS011;52627;48.838;2.402;2023-02-11T11:05:30;38.80;;;29.90;;
65853;SDS011;52627;48.838;2.402;2023-02-11T11:08:03;37.10;;;28.10;;
65853;SDS011;52627;48.838;2.402;2023-02-11T11:10:40;37.50;;;29.90;;
65853;SDS011;52627;48.838;2.402;2023-02-11T11:13:24;39.80;;;28.70;;
65853;SDS011;52627;48.838;2.402;2023-02-11T11:18:41;34.50;;;27.20;;
65853;SDS011;52627;48.838;2.402;2023-02-11T11:21:24;35.00;;;26.60;;
65853;SDS011;52627;48.838;2.402;2023-02-11T11:23:59;36.50;;;27.00;;
65853;SDS011;52627;48.838;2.402;2023-02-11T11:26:38;32.50;;;24.70;;
65853;SDS011;52627;48.838;2.402;2023-02-11T11:29:15;25.60;;;21.50;;
65853;SDS011;52627;48.838;2.402;2023-02-11T11:31:51;28.30;;;20.20;;
65853;SDS011;52627;48.838;2.402;2023-02-11T11:34:27;29.30;;;21.60;;
65853;SDS011;52627;48.838;2.402;2023-02-11T11:36:58;25.20;;;20.20;;
65853;SDS011;52627;48.838;2.402;2023-02-11T11:39:33;26.50;;;20.40;;
65853;SDS011;52627;48.838;2.402;2023-02-11T11:42:23;27.80;;;19.80;;
65853;SDS011;52627;48.838;2.402;2023-02-11T11:45:00;25.20;;;20.50;;
65853;SDS011;52627;48.838;2.402;2023-02-11T11:47:32;24.50;;;19.00;;
65853;SDS011;52627;48.838;2.402;2023-02-11T11:55:38;25.80;;;17.20;;
65853;SDS011;52627;48.838;2.402;2023-02-11T11:58:13;18.10;;;14.70;;
65853;SDS011;52627;48.838;2.402;2023-02-11T12:04:03;23.20;;;16.40;;
65853;SDS011;52627;48.838;2.402;2023-02-11T12:33:48;14.90;;;11.30;;
65853;SDS011;52627;48.838;2.402;2023-02-11T12:36:50;17.50;;;12.30;;
65853;SDS011;52627;48.838;2.402;2023-02-11T12:39:36;17.90;;;13.30;;
65853;SDS011;52627;48.838;2.402;2023-02-11T12:45:13;22.00;;;14.90;;
65853;SDS011;52627;48.838;2.402;2023-02-11T12:49:23;18.10;;;12.20;;
65853;SDS011;52627;48.838;2.402;2023-02-11T12:54:46;19.60;;;13.20;;
65853;SDS011;52627;48.838;2.402;2023-02-11T12:57:22;16.50;;;12.50;;
65853;SDS011;52627;48.838;2.402;2023-02-11T13:00:06;16.50;;;12.20;;
65853;SDS011;52627;48.838;2.402;2023-02-11T13:02:46;14.20;;;12.20;;
65853;SDS011;52627;48.838;2.402;2023-02-11T13:05:39;15.00;;;11.10;;
65853;SDS011;52627;48.838;2.402;2023-02-11T13:08:24;17.20;;;13.50;;
65853;SDS011;52627;48.838;2.402;2023-02-11T13:11:36;16.90;;;13.00;;
65853;SDS011;52627;48.838;2.402;2023-02-11T13:14:28;16.80;;;12.20;;
65853;SDS011;52627;48.838;2.402;2023-02-11T13:16:59;11.80;;;9.00;;
65853;SDS011;52627;48.838;2.402;2023-02-11T13:19:37;11.20;;;8.30;;
65853;SDS011;52627;48.838;2.402;2023-02-11T13:22:18;13.10;;;8.60;;
65853;SDS011;52627;48.838;2.402;2023-02-11T13:27:53;14.10;;;9.80;;
65853;SDS011;52627;48.838;2.402;2023-02-11T13:30:32;12.00;;;9.30;;
65853;SDS011;52627;48.838;2.402;2023-02-11T13:33:03;12.10;;;9.50;;
65853;SDS011;52627;48.838;2.402;2023-02-11T13:35:37;11.80;;;9.60;;
65853;SDS011;52627;48.838;2.402;2023-02-11T13:38:18;13.90;;;9.40;;
65853;SDS011;52627;48.838;2.402;2023-02-11T13:43:31;12.40;;;9.30;;
65853;SDS011;52627;48.838;2.402;2023-02-11T13:46:01;12.10;;;9.30;;
65853;SDS011;52627;48.838;2.402;2023-02-11T13:48:36;13.70;;;10.20;;
65853;SDS011;52627;48.838;2.402;2023-02-11T13:51:07;12.00;;;9.10;;
65853;SDS011;52627;48.838;2.402;2023-02-11T13:53:56;13.90;;;9.90;;
65853;SDS011;52627;48.838;2.402;2023-02-11T13:56:33;11.60;;;9.40;;
65853;SDS011;52627;48.838;2.402;2023-02-11T13:59:05;10.90;;;8.40;;
65853;SDS011;52627;48.838;2.402;2023-02-11T14:10:54;11.10;;;8.40;;
65853;SDS011;52627;48.838;2.402;2023-02-11T14:13:31;13.30;;;8.80;;
65853;SDS011;52627;48.838;2.402;2023-02-11T14:16:12;12.00;;;9.70;;
65853;SDS011;52627;48.838;2.402;2023-02-11T14:21:41;14.90;;;10.40;;
65853;SDS011;52627;48.838;2.402;2023-02-11T14:26:45;10.30;;;8.10;;
65853;SDS011;52627;48.838;2.402;2023-02-11T14:38:26;10.30;;;7.40;;
65853;SDS011;52627;48.838;2.402;2023-02-11T14:41:10;9.80;;;7.50;;
65853;SDS011;52627;48.838;2.402;2023-02-11T14:43:51;10.30;;;7.40;;
65853;SDS011;52627;48.838;2.402;2023-02-11T14:46:22;10.50;;;7.60;;
65853;SDS011;52627;48.838;2.402;2023-02-11T14:48:53;11.10;;;8.10;;
65853;SDS011;52627;48.838;2.402;2023-02-11T14:51:30;18.30;;;10.80;;
65853;SDS011;52627;48.838;2.402;2023-02-11T14:54:10;15.60;;;10.60;;
65853;SDS011;52627;48.838;2.402;2023-02-11T14:56:41;14.40;;;10.10;;
65853;SDS011;52627;48.838;2.402;2023-02-11T14:59:21;11.60;;;8.60;;
65853;SDS011;52627;48.838;2.402;2023-02-11T15:01:51;11.90;;;7.80;;
65853;SDS011;52627;48.838;2.402;2023-02-11T15:04:28;12.50;;;9.30;;
65853;SDS011;52627;48.838;2.402;2023-02-11T15:07:02;14.20;;;9.60;;
65853;SDS011;52627;48.838;2.402;2023-02-11T15:09:50;14.20;;;9.50;;
65853;SDS011;52627;48.838;2.402;2023-02-11T15:12:28;13.10;;;8.70;;
65853;SDS011;52627;48.838;2.402;2023-02-11T15:14:57;10.20;;;7.90;;
65853;SDS011;52627;48.838;2.402;2023-02-11T15:17:28;10.70;;;8.10;;
65853;SDS011;52627;48.838;2.402;2023-02-11T15:19:59;10.20;;;7.40;;
65853;SDS011;52627;48.838;2.402;2023-02-11T15:22:30;10.60;;;7.70;;
65853;SDS011;52627;48.838;2.402;2023-02-11T15:27:45;9.50;;;6.70;;
65853;SDS011;52627;48.838;2.402;2023-02-11T15:32:59;10.50;;;7.30;;
65853;SDS011;52627;48.838;2.402;2023-02-11T15:35:34;9.70;;;7.20;;
65853;SDS011;52627;48.838;2.402;2023-02-11T15:38:04;9.20;;;6.40;;
65853;SDS011;52627;48.838;2.402;2023-02-11T15:40:34;10.20;;;6.60;;
65853;SDS011;52627;48.838;2.402;2023-02-11T15:43:08;8.00;;;5.70;;
65853;SDS011;52627;48.838;2.402;2023-02-11T15:45:37;9.60;;;7.00;;
65853;SDS011;52627;48.838;2.402;2023-02-11T15:48:15;9.30;;;6.50;;
65853;SDS011;52627;48.838;2.402;2023-02-11T15:50:55;8.90;;;6.10;;
65853;SDS011;52627;48.838;2.402;2023-02-11T15:53:31;9.40;;;7.10;;
65853;SDS011;52627;48.838;2.402;2023-02-11T15:56:16;9.20;;;7.40;;
65853;SDS011;52627;48.838;2.402;2023-02-11T15:58:47;12.30;;;7.10;;
65853;SDS011;52627;48.838;2.402;2023-02-11T16:01:15;11.10;;;7.00;;
65853;SDS011;52627;48.838;2.402;2023-02-11T16:03:49;10.30;;;7.60;;
65853;SDS011;52627;48.838;2.402;2023-02-11T16:06:34;11.10;;;7.70;;
65853;SDS011;52627;48.838;2.402;2023-02-11T16:17:10;11.00;;;7.90;;
65853;SDS011;52627;48.838;2.402;2023-02-11T16:19:44;10.50;;;8.00;;
65853;SDS011;52627;48.838;2.402;2023-02-11T16:22:21;12.10;;;8.60;;
65853;SDS011;52627;48.838;2.402;2023-02-11T16:24:52;12.40;;;8.10;;
65853;SDS011;52627;48.838;2.402;2023-02-11T16:30:05;9.40;;;6.90;;
65853;SDS011;52627;48.838;2.402;2023-02-11T16:32:47;10.10;;;7.50;;
65853;SDS011;52627;48.838;2.402;2023-02-11T16:35:15;10.40;;;7.60;;
65853;SDS011;52627;48.838;2.402;2023-02-11T16:37:42;14.20;;;8.60;;
65853;SDS011;52627;48.838;2.402;2023-02-11T16:40:11;11.50;;;9.60;;
65853;SDS011;52627;48.838;2.402;2023-02-11T16:42:39;12.40;;;9.80;;
65853;SDS011;52627;48.838;2.402;2023-02-11T16:45:07;13.50;;;10.20;;
65853;SDS011;52627;48.838;2.402;2023-02-11T16:47:35;14.40;;;9.80;;
65853;SDS011;52627;48.838;2.402;2023-02-11T16:50:08;13.70;;;10.10;;
65853;SDS011;52627;48.838;2.402;2023-02-11T16:52:37;14.80;;;10.60;;
65853;SDS011;52627;48.838;2.402;2023-02-11T16:55:05;14.80;;;11.00;;
65853;SDS011;52627;48.838;2.402;2023-02-11T16:57:32;12.80;;;9.70;;
65853;SDS011;52627;48.838;2.402;2023-02-11T17:00:00;14.00;;;10.70;;
65853;SDS011;52627;48.838;2.402;2023-02-11T17:02:30;15.10;;;10.70;;
65853;SDS011;52627;48.838;2.402;2023-02-11T17:05:05;13.00;;;9.70;;
65853;SDS011;52627;48.838;2.402;2023-02-11T17:07:34;12.70;;;10.00;;
65853;SDS011;52627;48.838;2.402;2023-02-11T17:10:02;14.00;;;10.00;;
65853;SDS011;52627;48.838;2.402;2023-02-11T17:12:30;13.30;;;10.00;;
65853;SDS011;52627;48.838;2.402;2023-02-11T17:14:57;11.70;;;8.90;;
65853;SDS011;52627;48.838;2.402;2023-02-11T17:17:24;10.60;;;8.30;;
65853;SDS011;52627;48.838;2.402;2023-02-11T17:19:52;11.80;;;8.30;;
65853;SDS011;52627;48.838;2.402;2023-02-11T17:22:19;12.00;;;8.40;;
65853;SDS011;52627;48.838;2.402;2023-02-11T17:24:47;20.00;;;13.10;;
65853;SDS011;52627;48.838;2.402;2023-02-11T17:27:14;13.80;;;9.80;;
65853;SDS011;52627;48.838;2.402;2023-02-11T17:29:42;12.70;;;9.20;;